Airfield :
LOGIN :

Register | Disclaimer

   EN    FR    IT 

 










Legend :    VFR   Marginal VFR   IFR   Intensive IFR   Very Intensive IFR
Visi :
Ceiling :
>= 8 km
>= 3000ft
5 to 8 km
1000 to 3000 ft
1500m to 5 km
500 to 1000 ft
800 to 1500m
200 to 500 ft
< 800m
< 200 ft
Symbols :   Thunderstorms  Fog  Heavy snow  Heavy precipitations  Wind > 20 kt
SIGMETs :     Misc.  Thunderstorms  Icing  Turbulence  Mountain Waves  Volcanic Ashes







- Airport Elevation : 325 ft
- IATA code : BES
- Download approach charts


LFRB - Brest

CURRENT METAR :
  • 170530Z AUTO 25010KT 9999 OVC005 17/17 Q1014 BECMG 2000 BR DZ

EXPIRED METARs :
  • 170500Z AUTO 25011KT 5000 BR VV/// 17/17 Q1014 TEMPO 2000 RADZ OVC004 BECMG 19014KT
  • 170430Z AUTO 23013KT 2200 BR OVC002 18/18 Q1014 TEMPO RADZ
  • 170400Z AUTO 23014KT 3900 -DZ BR VV/// 18/18 Q1014 TEMPO 2000 RADZ OVC004
  • 170330Z AUTO 23012KT 1400 1300 R25/1800N R07/1900D -RA BR VV/// 18/18 Q1014 TEMPO 2000 RADZ OVC004
  • 170300Z AUTO 24012KT 3000 -RA BR VV/// 18/18 Q1014 TEMPO RADZ OVC004

TAF TAF LFRB
Valid from the 17 at 06:00 until the 18 at 12:00 UTC


170500Z 1706/1812 23013KT 2000 BR DZ OVC003
TEMPO 1712/1715 5000 BKN010
BECMG 1803/1806 25004KT 9999 SCT013
ATIS : +33 2 98 32 02 71
No reported NOTAMs for that airfield.



MET'MAP, your aeronautical weather chart ! - Copyright ORBIFLY December 2007 - Disclaimer

ORBIFLY MET'MAP TEAM :

Programming & Development : Alexandra Zaïnal
Concept & Development : Baudouin d'Aumeries
Co-Development & Prog : Marc-Olivier Méhu
Technical & hardware support : Manuel Goepfert

Contact : metmap@orbifly.com




SOURCES & CREDITS :

   NOAA